sensor_id;sensor_type;location;lat;lon;timestamp;P1;durP1;ratioP1;P2;durP2;ratioP2
64712;SDS011;51140;45.340;5.980;2022-09-09T00:00:16;7.70;;;1.15;;
64712;SDS011;51140;45.340;5.980;2022-09-09T00:08:31;7.88;;;1.33;;
64712;SDS011;51140;45.340;5.980;2022-09-09T00:11:12;5.32;;;1.20;;
64712;SDS011;51140;45.340;5.980;2022-09-09T00:13:46;6.80;;;1.10;;
64712;SDS011;51140;45.340;5.980;2022-09-09T00:16:17;9.57;;;1.33;;
64712;SDS011;51140;45.340;5.980;2022-09-09T00:21:39;3.10;;;1.27;;
64712;SDS011;51140;45.340;5.980;2022-09-09T00:24:24;4.13;;;1.25;;
64712;SDS011;51140;45.340;5.980;2022-09-09T00:27:09;8.27;;;1.20;;
64712;SDS011;51140;45.340;5.980;2022-09-09T00:29:55;7.50;;;1.30;;
64712;SDS011;51140;45.340;5.980;2022-09-09T00:32:27;7.38;;;1.38;;
64712;SDS011;51140;45.340;5.980;2022-09-09T00:35:03;3.97;;;1.17;;
64712;SDS011;51140;45.340;5.980;2022-09-09T00:37:40;10.10;;;1.40;;
64712;SDS011;51140;45.340;5.980;2022-09-09T00:40:22;5.55;;;1.20;;
64712;SDS011;51140;45.340;5.980;2022-09-09T00:42:59;4.20;;;1.30;;
64712;SDS011;51140;45.340;5.980;2022-09-09T00:45:57;4.05;;;1.33;;
64712;SDS011;51140;45.340;5.980;2022-09-09T00:51:29;4.53;;;1.23;;
64712;SDS011;51140;45.340;5.980;2022-09-09T00:56:37;4.45;;;1.38;;
64712;SDS011;51140;45.340;5.980;2022-09-09T01:01:35;5.25;;;1.40;;
64712;SDS011;51140;45.340;5.980;2022-09-09T01:04:00;6.78;;;1.63;;
64712;SDS011;51140;45.340;5.980;2022-09-09T01:06:34;4.20;;;1.40;;
64712;SDS011;51140;45.340;5.980;2022-09-09T01:09:21;8.55;;;1.48;;
64712;SDS011;51140;45.340;5.980;2022-09-09T01:14:47;5.63;;;1.40;;
64712;SDS011;51140;45.340;5.980;2022-09-09T01:28:03;3.80;;;1.30;;
64712;SDS011;51140;45.340;5.980;2022-09-09T01:30:34;5.75;;;1.50;;
64712;SDS011;51140;45.340;5.980;2022-09-09T01:33:00;10.18;;;1.60;;
64712;SDS011;51140;45.340;5.980;2022-09-09T01:35:32;5.13;;;1.30;;
64712;SDS011;51140;45.340;5.980;2022-09-09T01:38:10;3.97;;;1.42;;
64712;SDS011;51140;45.340;5.980;2022-09-09T01:40:36;4.90;;;1.33;;
64712;SDS011;51140;45.340;5.980;2022-09-09T01:43:02;3.17;;;1.23;;
64712;SDS011;51140;45.340;5.980;2022-09-09T01:45:28;5.10;;;1.35;;
64712;SDS011;51140;45.340;5.980;2022-09-09T01:47:55;5.40;;;1.30;;
64712;SDS011;51140;45.340;5.980;2022-09-09T02:10:08;3.88;;;1.15;;
64712;SDS011;51140;45.340;5.980;2022-09-09T02:12:40;6.75;;;1.40;;
64712;SDS011;51140;45.340;5.980;2022-09-09T02:15:25;4.15;;;1.25;;
64712;SDS011;51140;45.340;5.980;2022-09-09T02:17:56;5.00;;;1.30;;
64712;SDS011;51140;45.340;5.980;2022-09-09T02:20:24;2.72;;;1.25;;
64712;SDS011;51140;45.340;5.980;2022-09-09T02:22:52;7.97;;;1.40;;
64712;SDS011;51140;45.340;5.980;2022-09-09T02:25:19;5.22;;;1.38;;
64712;SDS011;51140;45.340;5.980;2022-09-09T02:27:48;10.05;;;1.70;;
64712;SDS011;51140;45.340;5.980;2022-09-09T02:30:16;6.32;;;1.30;;
64712;SDS011;51140;45.340;5.980;2022-09-09T02:32:42;4.18;;;1.25;;
64712;SDS011;51140;45.340;5.980;2022-09-09T02:35:15;6.03;;;1.55;;
64712;SDS011;51140;45.340;5.980;2022-09-09T02:37:45;7.10;;;1.25;;
64712;SDS011;51140;45.340;5.980;2022-09-09T02:40:11;5.75;;;1.60;;
64712;SDS011;51140;45.340;5.980;2022-09-09T02:42:44;6.43;;;1.30;;
64712;SDS011;51140;45.340;5.980;2022-09-09T02:45:12;6.25;;;1.40;;
64712;SDS011;51140;45.340;5.980;2022-09-09T02:50:13;4.82;;;1.40;;
64712;SDS011;51140;45.340;5.980;2022-09-09T02:58:25;5.55;;;1.38;;
64712;SDS011;51140;45.340;5.980;2022-09-09T03:00:51;3.92;;;1.27;;
64712;SDS011;51140;45.340;5.980;2022-09-09T03:03:18;4.47;;;1.42;;
64712;SDS011;51140;45.340;5.980;2022-09-09T03:05:44;5.88;;;1.40;;
64712;SDS011;51140;45.340;5.980;2022-09-09T03:08:10;3.60;;;1.50;;
64712;SDS011;51140;45.340;5.980;2022-09-09T03:10:37;9.48;;;1.52;;
64712;SDS011;51140;45.340;5.980;2022-09-09T03:13:03;6.22;;;1.60;;
64712;SDS011;51140;45.340;5.980;2022-09-09T03:15:30;4.03;;;1.25;;
64712;SDS011;51140;45.340;5.980;2022-09-09T03:17:57;7.22;;;1.30;;
64712;SDS011;51140;45.340;5.980;2022-09-09T03:20:24;5.00;;;1.45;;
64712;SDS011;51140;45.340;5.980;2022-09-09T03:22:51;4.47;;;1.27;;
64712;SDS011;51140;45.340;5.980;2022-09-09T03:25:17;5.30;;;1.50;;
64712;SDS011;51140;45.340;5.980;2022-09-09T03:27:43;4.97;;;1.40;;
64712;SDS011;51140;45.340;5.980;2022-09-09T03:30:08;7.85;;;1.70;;
64712;SDS011;51140;45.340;5.980;2022-09-09T03:32:34;5.65;;;1.70;;
64712;SDS011;51140;45.340;5.980;2022-09-09T03:34:59;3.90;;;1.33;;
64712;SDS011;51140;45.340;5.980;2022-09-09T03:37:25;6.07;;;1.50;;
64712;SDS011;51140;45.340;5.980;2022-09-09T03:39:50;10.45;;;1.80;;
64712;SDS011;51140;45.340;5.980;2022-09-09T03:42:16;7.82;;;1.45;;
64712;SDS011;51140;45.340;5.980;2022-09-09T03:44:45;7.80;;;1.60;;
64712;SDS011;51140;45.340;5.980;2022-09-09T03:47:21;7.03;;;1.23;;
64712;SDS011;51140;45.340;5.980;2022-09-09T03:49:47;4.97;;;1.30;;
64712;SDS011;51140;45.340;5.980;2022-09-09T03:52:13;5.13;;;1.42;;
64712;SDS011;51140;45.340;5.980;2022-09-09T03:54:39;3.80;;;1.35;;
64712;SDS011;51140;45.340;5.980;2022-09-09T03:57:06;4.45;;;1.50;;
64712;SDS011;51140;45.340;5.980;2022-09-09T03:59:31;6.10;;;1.65;;
64712;SDS011;51140;45.340;5.980;2022-09-09T04:01:56;5.65;;;1.77;;
64712;SDS011;51140;45.340;5.980;2022-09-09T04:04:24;4.57;;;1.70;;
64712;SDS011;51140;45.340;5.980;2022-09-09T04:06:51;4.43;;;1.70;;
64712;SDS011;51140;45.340;5.980;2022-09-09T04:09:17;5.22;;;1.67;;
64712;SDS011;51140;45.340;5.980;2022-09-09T04:11:42;6.30;;;1.60;;
64712;SDS011;51140;45.340;5.980;2022-09-09T04:14:07;3.60;;;1.48;;
64712;SDS011;51140;45.340;5.980;2022-09-09T04:16:34;8.27;;;1.73;;
64712;SDS011;51140;45.340;5.980;2022-09-09T04:19:02;4.68;;;1.33;;
64712;SDS011;51140;45.340;5.980;2022-09-09T04:21:29;5.25;;;1.58;;
64712;SDS011;51140;45.340;5.980;2022-09-09T04:23:55;6.30;;;1.40;;
64712;SDS011;51140;45.340;5.980;2022-09-09T04:26:20;4.93;;;1.52;;
64712;SDS011;51140;45.340;5.980;2022-09-09T04:28:46;5.45;;;1.85;;
64712;SDS011;51140;45.340;5.980;2022-09-09T04:31:16;8.90;;;3.05;;
64712;SDS011;51140;45.340;5.980;2022-09-09T04:33:45;8.93;;;1.77;;
64712;SDS011;51140;45.340;5.980;2022-09-09T04:36:11;6.03;;;1.67;;
64712;SDS011;51140;45.340;5.980;2022-09-09T04:38:37;7.15;;;1.60;;
64712;SDS011;51140;45.340;5.980;2022-09-09T04:41:03;3.17;;;1.38;;
64712;SDS011;51140;45.340;5.980;2022-09-09T04:43:29;4.40;;;1.50;;
64712;SDS011;51140;45.340;5.980;2022-09-09T04:45:56;7.40;;;1.73;;
64712;SDS011;51140;45.340;5.980;2022-09-09T04:48:21;4.63;;;1.50;;
64712;SDS011;51140;45.340;5.980;2022-09-09T04:51:01;6.22;;;1.70;;
64712;SDS011;51140;45.340;5.980;2022-09-09T04:53:29;4.40;;;1.60;;
64712;SDS011;51140;45.340;5.980;2022-09-09T04:56:04;4.85;;;1.60;;
64712;SDS011;51140;45.340;5.980;2022-09-09T04:58:37;4.78;;;1.60;;
64712;SDS011;51140;45.340;5.980;2022-09-09T05:01:07;9.38;;;1.70;;
64712;SDS011;51140;45.340;5.980;2022-09-09T05:03:34;3.70;;;1.40;;
64712;SDS011;51140;45.340;5.980;2022-09-09T05:06:04;4.60;;;1.45;;
64712;SDS011;51140;45.340;5.980;2022-09-09T05:08:35;4.28;;;1.60;;
64712;SDS011;51140;45.340;5.980;2022-09-09T05:11:02;4.00;;;1.50;;
64712;SDS011;51140;45.340;5.980;2022-09-09T05:13:28;4.13;;;1.42;;
64712;SDS011;51140;45.340;5.980;2022-09-09T05:15:54;4.38;;;1.52;;
64712;SDS011;51140;45.340;5.980;2022-09-09T05:18:20;7.97;;;1.67;;
64712;SDS011;51140;45.340;5.980;2022-09-09T05:20:47;9.18;;;1.70;;
64712;SDS011;51140;45.340;5.980;2022-09-09T05:23:13;6.05;;;1.58;;
64712;SDS011;51140;45.340;5.980;2022-09-09T05:25:38;4.78;;;1.80;;
64712;SDS011;51140;45.340;5.980;2022-09-09T05:28:05;5.22;;;1.70;;
64712;SDS011;51140;45.340;5.980;2022-09-09T05:30:32;8.27;;;1.60;;
64712;SDS011;51140;45.340;5.980;2022-09-09T05:32:57;6.35;;;1.75;;
64712;SDS011;51140;45.340;5.980;2022-09-09T05:35:23;4.75;;;1.92;;
64712;SDS011;51140;45.340;5.980;2022-09-09T05:37:48;6.95;;;1.60;;
64712;SDS011;51140;45.340;5.980;2022-09-09T05:40:13;5.53;;;1.85;;
64712;SDS011;51140;45.340;5.980;2022-09-09T05:42:39;4.47;;;1.60;;
64712;SDS011;51140;45.340;5.980;2022-09-09T05:45:06;6.15;;;1.50;;
64712;SDS011;51140;45.340;5.980;2022-09-09T05:47:32;6.05;;;1.77;;
64712;SDS011;51140;45.340;5.980;2022-09-09T05:49:58;5.97;;;1.70;;
64712;SDS011;51140;45.340;5.980;2022-09-09T05:52:23;6.15;;;1.52;;
64712;SDS011;51140;45.340;5.980;2022-09-09T05:54:50;8.15;;;1.50;;
64712;SDS011;51140;45.340;5.980;2022-09-09T05:57:16;6.72;;;1.38;;
64712;SDS011;51140;45.340;5.980;2022-09-09T05:59:42;8.10;;;2.80;;
64712;SDS011;51140;45.340;5.980;2022-09-09T06:02:08;10.20;;;1.70;;
64712;SDS011;51140;45.340;5.980;2022-09-09T06:04:34;5.70;;;2.05;;
64712;SDS011;51140;45.340;5.980;2022-09-09T06:06:59;7.10;;;1.77;;
64712;SDS011;51140;45.340;5.980;2022-09-09T06:09:25;8.68;;;1.95;;
64712;SDS011;51140;45.340;5.980;2022-09-09T06:11:51;7.07;;;2.10;;
64712;SDS011;51140;45.340;5.980;2022-09-09T06:14:16;4.93;;;1.77;;
64712;SDS011;51140;45.340;5.980;2022-09-09T06:16:43;9.32;;;2.08;;
64712;SDS011;51140;45.340;5.980;2022-09-09T06:19:09;7.20;;;2.20;;
64712;SDS011;51140;45.340;5.980;2022-09-09T06:21:35;10.18;;;2.35;;
64712;SDS011;51140;45.340;5.980;2022-09-09T06:24:02;8.82;;;2.08;;
64712;SDS011;51140;45.340;5.980;2022-09-09T06:26:32;6.18;;;2.30;;
64712;SDS011;51140;45.340;5.980;2022-09-09T06:28:59;7.43;;;2.03;;
64712;SDS011;51140;45.340;5.980;2022-09-09T06:31:28;6.93;;;2.30;;
64712;SDS011;51140;45.340;5.980;2022-09-09T06:33:59;8.20;;;1.90;;
64712;SDS011;51140;45.340;5.980;2022-09-09T06:36:26;6.95;;;2.30;;
64712;SDS011;51140;45.340;5.980;2022-09-09T06:38:53;8.20;;;2.03;;
64712;SDS011;51140;45.340;5.980;2022-09-09T06:41:20;6.18;;;2.08;;
64712;SDS011;51140;45.340;5.980;2022-09-09T06:43:46;5.75;;;2.10;;
64712;SDS011;51140;45.340;5.980;2022-09-09T06:46:16;9.77;;;2.33;;
64712;SDS011;51140;45.340;5.980;2022-09-09T06:48:43;4.78;;;1.73;;
64712;SDS011;51140;45.340;5.980;2022-09-09T06:51:19;4.50;;;1.50;;
64712;SDS011;51140;45.340;5.980;2022-09-09T06:53:51;4.50;;;1.70;;
64712;SDS011;51140;45.340;5.980;2022-09-09T06:58:52;7.47;;;1.65;;
64712;SDS011;51140;45.340;5.980;2022-09-09T07:01:25;5.57;;;1.70;;
64712;SDS011;51140;45.340;5.980;2022-09-09T07:06:21;6.28;;;1.63;;
64712;SDS011;51140;45.340;5.980;2022-09-09T07:08:51;6.85;;;1.63;;
64712;SDS011;51140;45.340;5.980;2022-09-09T07:11:25;7.88;;;2.03;;
64712;SDS011;51140;45.340;5.980;2022-09-09T07:13:54;4.97;;;1.60;;
64712;SDS011;51140;45.340;5.980;2022-09-09T07:16:22;4.80;;;1.63;;
64712;SDS011;51140;45.340;5.980;2022-09-09T07:18:51;4.05;;;1.52;;
64712;SDS011;51140;45.340;5.980;2022-09-09T07:21:17;4.50;;;1.55;;
64712;SDS011;51140;45.340;5.980;2022-09-09T07:23:43;3.63;;;1.38;;
64712;SDS011;51140;45.340;5.980;2022-09-09T07:26:13;6.50;;;1.90;;
64712;SDS011;51140;45.340;5.980;2022-09-09T07:28:40;6.55;;;1.60;;
64712;SDS011;51140;45.340;5.980;2022-09-09T07:31:07;3.88;;;1.63;;
64712;SDS011;51140;45.340;5.980;2022-09-09T07:33:36;6.47;;;1.65;;
64712;SDS011;51140;45.340;5.980;2022-09-09T07:36:08;9.15;;;1.70;;
64712;SDS011;51140;45.340;5.980;2022-09-09T07:38:38;5.30;;;1.50;;
64712;SDS011;51140;45.340;5.980;2022-09-09T07:41:08;6.38;;;1.67;;
64712;SDS011;51140;45.340;5.980;2022-09-09T07:43:40;5.20;;;1.50;;
64712;SDS011;51140;45.340;5.980;2022-09-09T07:46:07;6.78;;;1.60;;
64712;SDS011;51140;45.340;5.980;2022-09-09T07:48:33;3.70;;;1.35;;
64712;SDS011;51140;45.340;5.980;2022-09-09T07:51:03;7.38;;;1.88;;
64712;SDS011;51140;45.340;5.980;2022-09-09T07:53:32;5.10;;;1.60;;
64712;SDS011;51140;45.340;5.980;2022-09-09T07:56:03;4.30;;;1.50;;
64712;SDS011;51140;45.340;5.980;2022-09-09T07:58:29;6.13;;;1.70;;
64712;SDS011;51140;45.340;5.980;2022-09-09T08:00:55;5.25;;;1.98;;
64712;SDS011;51140;45.340;5.980;2022-09-09T08:03:20;3.53;;;1.40;;
64712;SDS011;51140;45.340;5.980;2022-09-09T08:05:47;6.15;;;1.55;;
64712;SDS011;51140;45.340;5.980;2022-09-09T08:08:12;2.90;;;1.40;;
64712;SDS011;51140;45.340;5.980;2022-09-09T08:10:37;3.75;;;1.58;;
64712;SDS011;51140;45.340;5.980;2022-09-09T08:13:03;5.75;;;1.80;;
64712;SDS011;51140;45.340;5.980;2022-09-09T08:15:28;6.53;;;1.60;;
64712;SDS011;51140;45.340;5.980;2022-09-09T08:17:56;6.65;;;1.75;;
64712;SDS011;51140;45.340;5.980;2022-09-09T08:20:21;5.75;;;1.58;;
64712;SDS011;51140;45.340;5.980;2022-09-09T08:22:48;7.07;;;1.60;;
64712;SDS011;51140;45.340;5.980;2022-09-09T08:25:15;4.80;;;1.83;;
64712;SDS011;51140;45.340;5.980;2022-09-09T08:27:40;4.22;;;2.00;;
64712;SDS011;51140;45.340;5.980;2022-09-09T08:30:06;6.28;;;1.60;;
64712;SDS011;51140;45.340;5.980;2022-09-09T08:32:32;7.45;;;1.67;;
64712;SDS011;51140;45.340;5.980;2022-09-09T08:34:57;5.00;;;1.77;;
64712;SDS011;51140;45.340;5.980;2022-09-09T08:37:22;8.05;;;1.75;;
64712;SDS011;51140;45.340;5.980;2022-09-09T08:39:48;5.25;;;1.60;;
64712;SDS011;51140;45.340;5.980;2022-09-09T08:45:09;4.03;;;1.50;;
64712;SDS011;51140;45.340;5.980;2022-09-09T08:48:00;5.47;;;1.73;;
64712;SDS011;51140;45.340;5.980;2022-09-09T08:50:41;5.95;;;1.45;;
64712;SDS011;51140;45.340;5.980;2022-09-09T08:55:46;7.13;;;1.60;;
64712;SDS011;51140;45.340;5.980;2022-09-09T08:58:25;5.25;;;1.58;;
64712;SDS011;51140;45.340;5.980;2022-09-09T09:03:45;5.28;;;1.90;;
64712;SDS011;51140;45.340;5.980;2022-09-09T09:09:02;8.32;;;1.55;;
64712;SDS011;51140;45.340;5.980;2022-09-09T09:11:48;5.40;;;1.25;;
64712;SDS011;51140;45.340;5.980;2022-09-09T09:14:20;5.68;;;1.52;;
64712;SDS011;51140;45.340;5.980;2022-09-09T09:16:58;3.08;;;1.23;;
64712;SDS011;51140;45.340;5.980;2022-09-09T09:19:26;5.15;;;1.60;;
64712;SDS011;51140;45.340;5.980;2022-09-09T09:27:14;2.42;;;1.00;;
64712;SDS011;51140;45.340;5.980;2022-09-09T09:29:43;5.35;;;1.45;;
64712;SDS011;51140;45.340;5.980;2022-09-09T09:32:10;3.92;;;1.15;;
64712;SDS011;51140;45.340;5.980;2022-09-09T09:34:41;5.43;;;1.30;;
64712;SDS011;51140;45.340;5.980;2022-09-09T09:37:12;4.40;;;1.20;;
64712;SDS011;51140;45.340;5.980;2022-09-09T09:39:48;3.47;;;1.20;;
64712;SDS011;51140;45.340;5.980;2022-09-09T09:42:16;6.38;;;1.33;;
64712;SDS011;51140;45.340;5.980;2022-09-09T09:44:43;5.15;;;1.13;;
64712;SDS011;51140;45.340;5.980;2022-09-09T09:47:15;4.15;;;1.30;;
64712;SDS011;51140;45.340;5.980;2022-09-09T09:52:19;4.25;;;1.38;;
64712;SDS011;51140;45.340;5.980;2022-09-09T09:54:50;4.20;;;1.00;;
64712;SDS011;51140;45.340;5.980;2022-09-09T09:57:18;2.63;;;1.10;;
64712;SDS011;51140;45.340;5.980;2022-09-09T09:59:48;2.38;;;1.00;;
64712;SDS011;51140;45.340;5.980;2022-09-09T10:02:15;3.15;;;1.20;;
64712;SDS011;51140;45.340;5.980;2022-09-09T10:04:42;4.32;;;0.90;;
64712;SDS011;51140;45.340;5.980;2022-09-09T10:07:26;7.07;;;1.10;;
64712;SDS011;51140;45.340;5.980;2022-09-09T10:09:55;3.33;;;1.13;;
64712;SDS011;51140;45.340;5.980;2022-09-09T10:20:51;4.25;;;1.20;;
64712;SDS011;51140;45.340;5.980;2022-09-09T10:32:06;3.63;;;1.27;;
64712;SDS011;51140;45.340;5.980;2022-09-09T10:35:23;4.35;;;1.35;;
64712;SDS011;51140;45.340;5.980;2022-09-09T10:37:56;3.78;;;0.90;;
64712;SDS011;51140;45.340;5.980;2022-09-09T10:40:43;5.35;;;1.20;;
64712;SDS011;51140;45.340;5.980;2022-09-09T10:48:31;4.50;;;1.10;;
64712;SDS011;51140;45.340;5.980;2022-09-09T10:54:23;2.88;;;1.20;;
64712;SDS011;51140;45.340;5.980;2022-09-09T10:57:12;3.03;;;1.10;;
64712;SDS011;51140;45.340;5.980;2022-09-09T10:59:48;3.63;;;1.20;;
64712;SDS011;51140;45.340;5.980;2022-09-09T11:10:42;2.90;;;1.00;;
64712;SDS011;51140;45.340;5.980;2022-09-09T11:13:24;2.63;;;1.20;;
64712;SDS011;51140;45.340;5.980;2022-09-09T11:18:50;2.95;;;1.00;;
64712;SDS011;51140;45.340;5.980;2022-09-09T11:21:31;3.13;;;1.02;;
64712;SDS011;51140;45.340;5.980;2022-09-09T11:24:03;5.75;;;1.30;;
64712;SDS011;51140;45.340;5.980;2022-09-09T11:27:20;3.15;;;1.23;;
64712;SDS011;51140;45.340;5.980;2022-09-09T11:41:09;4.57;;;1.20;;
64712;SDS011;51140;45.340;5.980;2022-09-09T11:43:50;7.20;;;1.10;;
64712;SDS011;51140;45.340;5.980;2022-09-09T11:46:18;3.15;;;1.08;;
64712;SDS011;51140;45.340;5.980;2022-09-09T11:49:03;3.63;;;1.17;;
64712;SDS011;51140;45.340;5.980;2022-09-09T11:51:31;3.85;;;1.10;;
64712;SDS011;51140;45.340;5.980;2022-09-09T11:56:31;5.32;;;1.30;;
64712;SDS011;51140;45.340;5.980;2022-09-09T11:59:06;3.22;;;1.13;;
64712;SDS011;51140;45.340;5.980;2022-09-09T12:01:45;4.43;;;1.10;;
64712;SDS011;51140;45.340;5.980;2022-09-09T12:06:53;4.68;;;1.48;;
64712;SDS011;51140;45.340;5.980;2022-09-09T12:09:27;2.78;;;1.08;;
64712;SDS011;51140;45.340;5.980;2022-09-09T12:12:04;5.28;;;1.40;;
64712;SDS011;51140;45.340;5.980;2022-09-09T12:14:35;4.35;;;1.27;;
64712;SDS011;51140;45.340;5.980;2022-09-09T12:17:21;4.55;;;1.17;;
64712;SDS011;51140;45.340;5.980;2022-09-09T12:19:59;4.72;;;1.30;;
64712;SDS011;51140;45.340;5.980;2022-09-09T12:33:22;2.90;;;1.30;;
64712;SDS011;51140;45.340;5.980;2022-09-09T12:35:54;3.85;;;1.15;;
64712;SDS011;51140;45.340;5.980;2022-09-09T12:38:36;6.03;;;1.40;;
64712;SDS011;51140;45.340;5.980;2022-09-09T12:41:04;3.38;;;1.05;;
64712;SDS011;51140;45.340;5.980;2022-09-09T12:43:30;5.30;;;1.20;;
64712;SDS011;51140;45.340;5.980;2022-09-09T12:45:57;3.40;;;1.00;;
64712;SDS011;51140;45.340;5.980;2022-09-09T12:48:34;6.75;;;1.10;;
64712;SDS011;51140;45.340;5.980;2022-09-09T12:51:05;4.97;;;1.40;;
64712;SDS011;51140;45.340;5.980;2022-09-09T12:53:52;2.88;;;1.00;;
64712;SDS011;51140;45.340;5.980;2022-09-09T12:56:19;3.65;;;1.20;;
64712;SDS011;51140;45.340;5.980;2022-09-09T12:58:47;3.40;;;1.20;;
64712;SDS011;51140;45.340;5.980;2022-09-09T13:01:21;5.20;;;1.15;;
64712;SDS011;51140;45.340;5.980;2022-09-09T13:03:48;3.03;;;0.98;;
64712;SDS011;51140;45.340;5.980;2022-09-09T13:06:21;5.60;;;1.10;;
64712;SDS011;51140;45.340;5.980;2022-09-09T13:08:56;2.27;;;0.97;;
64712;SDS011;51140;45.340;5.980;2022-09-09T13:14:32;2.05;;;1.00;;
64712;SDS011;51140;45.340;5.980;2022-09-09T13:17:03;2.92;;;0.90;;
64712;SDS011;51140;45.340;5.980;2022-09-09T13:19:31;3.40;;;1.00;;
64712;SDS011;51140;45.340;5.980;2022-09-09T13:22:10;4.82;;;1.00;;
64712;SDS011;51140;45.340;5.980;2022-09-09T13:24:46;9.48;;;1.70;;
64712;SDS011;51140;45.340;5.980;2022-09-09T13:27:31;3.95;;;0.90;;
64712;SDS011;51140;45.340;5.980;2022-09-09T13:29:59;8.00;;;1.10;;
64712;SDS011;51140;45.340;5.980;2022-09-09T13:32:25;2.35;;;0.95;;
64712;SDS011;51140;45.340;5.980;2022-09-09T13:34:53;2.63;;;0.93;;
64712;SDS011;51140;45.340;5.980;2022-09-09T13:37:24;2.72;;;0.90;;
64712;SDS011;51140;45.340;5.980;2022-09-09T13:39:56;3.78;;;0.80;;
64712;SDS011;51140;45.340;5.980;2022-09-09T13:42:26;4.93;;;0.95;;
64712;SDS011;51140;45.340;5.980;2022-09-09T13:44:55;2.83;;;0.90;;
64712;SDS011;51140;45.340;5.980;2022-09-09T13:47:26;2.72;;;0.70;;
64712;SDS011;51140;45.340;5.980;2022-09-09T13:49:56;3.25;;;0.82;;
64712;SDS011;51140;45.340;5.980;2022-09-09T13:52:21;3.05;;;0.88;;
64712;SDS011;51140;45.340;5.980;2022-09-09T13:54:50;2.20;;;0.80;;
64712;SDS011;51140;45.340;5.980;2022-09-09T13:57:23;3.75;;;1.00;;
64712;SDS011;51140;45.340;5.980;2022-09-09T13:59:51;2.80;;;0.90;;
64712;SDS011;51140;45.340;5.980;2022-09-09T14:02:22;2.92;;;0.90;;
64712;SDS011;51140;45.340;5.980;2022-09-09T14:04:49;1.95;;;0.70;;
64712;SDS011;51140;45.340;5.980;2022-09-09T14:07:16;1.83;;;0.65;;
64712;SDS011;51140;45.340;5.980;2022-09-09T14:09:42;3.40;;;0.70;;
64712;SDS011;51140;45.340;5.980;2022-09-09T14:12:09;5.43;;;0.80;;
64712;SDS011;51140;45.340;5.980;2022-09-09T14:14:36;3.35;;;0.60;;
64712;SDS011;51140;45.340;5.980;2022-09-09T14:17:01;3.30;;;0.90;;
64712;SDS011;51140;45.340;5.980;2022-09-09T14:19:28;1.20;;;0.60;;
64712;SDS011;51140;45.340;5.980;2022-09-09T14:21:53;3.03;;;0.70;;
64712;SDS011;51140;45.340;5.980;2022-09-09T14:24:19;2.70;;;0.70;;
64712;SDS011;51140;45.340;5.980;2022-09-09T14:26:44;2.58;;;0.65;;
64712;SDS011;51140;45.340;5.980;2022-09-09T14:29:10;4.32;;;0.95;;
64712;SDS011;51140;45.340;5.980;2022-09-09T14:31:35;41.90;;;2.72;;
64712;SDS011;51140;45.340;5.980;2022-09-09T14:34:00;3.33;;;0.70;;
64712;SDS011;51140;45.340;5.980;2022-09-09T14:36:26;5.43;;;0.70;;
64712;SDS011;51140;45.340;5.980;2022-09-09T14:38:51;1.98;;;0.52;;
64712;SDS011;51140;45.340;5.980;2022-09-09T14:41:18;1.00;;;0.50;;
64712;SDS011;51140;45.340;5.980;2022-09-09T14:43:45;1.00;;;0.50;;
64712;SDS011;51140;45.340;5.980;2022-09-09T14:46:12;2.67;;;0.60;;
64712;SDS011;51140;45.340;5.980;2022-09-09T14:48:39;2.00;;;0.50;;
64712;SDS011;51140;45.340;5.980;2022-09-09T14:51:09;3.58;;;0.50;;
64712;SDS011;51140;45.340;5.980;2022-09-09T14:53:34;1.52;;;0.55;;
64712;SDS011;51140;45.340;5.980;2022-09-09T14:56:04;3.42;;;0.60;;
64712;SDS011;51140;45.340;5.980;2022-09-09T14:58:32;1.50;;;0.55;;
64712;SDS011;51140;45.340;5.980;2022-09-09T15:01:02;5.20;;;0.50;;
64712;SDS011;51140;45.340;5.980;2022-09-09T15:03:31;3.08;;;0.57;;
64712;SDS011;51140;45.340;5.980;2022-09-09T15:05:57;2.58;;;0.70;;
64712;SDS011;51140;45.340;5.980;2022-09-09T15:08:23;1.23;;;0.57;;
64712;SDS011;51140;45.340;5.980;2022-09-09T15:10:49;1.98;;;0.50;;
64712;SDS011;51140;45.340;5.980;2022-09-09T15:13:15;1.88;;;0.50;;
64712;SDS011;51140;45.340;5.980;2022-09-09T15:15:42;3.30;;;0.55;;
64712;SDS011;51140;45.340;5.980;2022-09-09T15:18:08;2.83;;;0.68;;
64712;SDS011;51140;45.340;5.980;2022-09-09T15:20:33;1.85;;;0.50;;
64712;SDS011;51140;45.340;5.980;2022-09-09T15:22:59;2.35;;;0.63;;
64712;SDS011;51140;45.340;5.980;2022-09-09T15:25:25;3.78;;;0.70;;
64712;SDS011;51140;45.340;5.980;2022-09-09T15:27:51;1.55;;;0.55;;
64712;SDS011;51140;45.340;5.980;2022-09-09T15:30:17;3.00;;;0.60;;
64712;SDS011;51140;45.340;5.980;2022-09-09T15:32:42;1.60;;;0.60;;
64712;SDS011;51140;45.340;5.980;2022-09-09T15:35:07;3.15;;;0.57;;
64712;SDS011;51140;45.340;5.980;2022-09-09T15:37:33;1.52;;;0.40;;
64712;SDS011;51140;45.340;5.980;2022-09-09T15:39:58;2.13;;;0.50;;
64712;SDS011;51140;45.340;5.980;2022-09-09T15:42:24;1.10;;;0.50;;
64712;SDS011;51140;45.340;5.980;2022-09-09T15:44:50;2.78;;;0.40;;
64712;SDS011;51140;45.340;5.980;2022-09-09T15:47:15;1.02;;;0.47;;
64712;SDS011;51140;45.340;5.980;2022-09-09T15:49:41;1.23;;;0.50;;
64712;SDS011;51140;45.340;5.980;2022-09-09T15:52:08;3.30;;;0.60;;
64712;SDS011;51140;45.340;5.980;2022-09-09T15:54:36;1.67;;;0.50;;
64712;SDS011;51140;45.340;5.980;2022-09-09T15:57:04;1.98;;;0.40;;
64712;SDS011;51140;45.340;5.980;2022-09-09T15:59:31;1.20;;;0.40;;
64712;SDS011;51140;45.340;5.980;2022-09-09T16:01:57;2.90;;;0.65;;
64712;SDS011;51140;45.340;5.980;2022-09-09T16:04:25;3.17;;;0.63;;
64712;SDS011;51140;45.340;5.980;2022-09-09T16:06:52;2.60;;;0.52;;
64712;SDS011;51140;45.340;5.980;2022-09-09T16:09:19;1.85;;;0.38;;
64712;SDS011;51140;45.340;5.980;2022-09-09T16:11:45;1.95;;;0.57;;
64712;SDS011;51140;45.340;5.980;2022-09-09T16:14:12;2.17;;;0.40;;
64712;SDS011;51140;45.340;5.980;2022-09-09T16:16:37;2.72;;;0.50;;
64712;SDS011;51140;45.340;5.980;2022-09-09T16:19:04;1.10;;;0.40;;
64712;SDS011;51140;45.340;5.980;2022-09-09T16:21:35;1.73;;;0.52;;
64712;SDS011;51140;45.340;5.980;2022-09-09T16:24:05;1.83;;;0.47;;
64712;SDS011;51140;45.340;5.980;2022-09-09T16:26:32;3.25;;;0.40;;
64712;SDS011;51140;45.340;5.980;2022-09-09T16:28:59;3.08;;;0.40;;
64712;SDS011;51140;45.340;5.980;2022-09-09T16:31:26;2.50;;;0.60;;
64712;SDS011;51140;45.340;5.980;2022-09-09T16:33:52;3.05;;;0.50;;
64712;SDS011;51140;45.340;5.980;2022-09-09T16:36:19;2.72;;;0.40;;
64712;SDS011;51140;45.340;5.980;2022-09-09T16:38:47;1.15;;;0.30;;
64712;SDS011;51140;45.340;5.980;2022-09-09T16:41:13;1.60;;;0.45;;
64712;SDS011;51140;45.340;5.980;2022-09-09T16:43:40;2.00;;;0.30;;
64712;SDS011;51140;45.340;5.980;2022-09-09T16:46:12;5.18;;;0.60;;
64712;SDS011;51140;45.340;5.980;2022-09-09T16:48:40;1.75;;;0.43;;
64712;SDS011;51140;45.340;5.980;2022-09-09T16:51:07;2.67;;;0.50;;
64712;SDS011;51140;45.340;5.980;2022-09-09T16:53:36;2.97;;;0.55;;
64712;SDS011;51140;45.340;5.980;2022-09-09T16:56:09;4.50;;;0.50;;
64712;SDS011;51140;45.340;5.980;2022-09-09T16:58:36;3.70;;;0.75;;
64712;SDS011;51140;45.340;5.980;2022-09-09T17:01:02;4.05;;;1.00;;
64712;SDS011;51140;45.340;5.980;2022-09-09T17:03:28;1.85;;;0.43;;
64712;SDS011;51140;45.340;5.980;2022-09-09T17:05:54;3.88;;;0.55;;
64712;SDS011;51140;45.340;5.980;2022-09-09T17:08:19;3.15;;;0.50;;
64712;SDS011;51140;45.340;5.980;2022-09-09T17:10:45;2.65;;;0.40;;
64712;SDS011;51140;45.340;5.980;2022-09-09T17:13:10;1.63;;;0.60;;
64712;SDS011;51140;45.340;5.980;2022-09-09T17:15:41;4.22;;;0.70;;
64712;SDS011;51140;45.340;5.980;2022-09-09T17:18:08;4.40;;;0.50;;
64712;SDS011;51140;45.340;5.980;2022-09-09T17:20:35;3.35;;;0.60;;
64712;SDS011;51140;45.340;5.980;2022-09-09T17:23:08;2.20;;;0.50;;
64712;SDS011;51140;45.340;5.980;2022-09-09T17:25:34;5.13;;;0.50;;
64712;SDS011;51140;45.340;5.980;2022-09-09T17:28:01;1.80;;;0.50;;
64712;SDS011;51140;45.340;5.980;2022-09-09T17:30:29;3.08;;;0.43;;